Time;durP1;ratioP1;P1;durP2;ratioP2;P2;SDS_P1;SDS_P2;PMS_P1;PMS_P2;Temp;Humidity;BMP_temperature;BMP_pressure;BME280_temperature;BME280_humidity;BME280_pressure;Samples;Min_cycle;Max_cycle;Signal;HPM_P1;HPM_P2
2023/03/27 00:01:23;;;;;;;0.52;0.52;;;;;;;;;;5051520;28;20025;-83
2023/03/27 00:03:50;;;;;;;0.80;0.80;;;;;;;;;;5050781;28;20047;-84
2023/03/27 00:06:17;;;;;;;0.55;0.55;;;;;;;;;;5051769;28;20033;-84
2023/03/27 00:08:45;;;;;;;0.43;0.40;;;;;;;;;;5046537;28;20025;-84
2023/03/27 00:11:11;;;;;;;0.93;0.93;;;;;;;;;;5047961;28;20055;-84
2023/03/27 00:13:37;;;;;;;0.70;0.55;;;;;;;;;;5030066;28;20025;-84
2023/03/27 00:16:04;;;;;;;0.90;0.90;;;;;;;;;;5029499;28;20017;-84
2023/03/27 00:18:32;;;;;;;0.38;0.38;;;;;;;;;;5030583;28;20032;-85
2023/03/27 00:20:59;;;;;;;0.57;0.57;;;;;;;;;;5052442;28;20729;-84
2023/03/27 00:23:25;;;;;;;0.43;0.30;;;;;;;;;;5034430;28;20092;-84
2023/03/27 00:25:51;;;;;;;0.63;0.60;;;;;;;;;;5055118;28;20021;-84
2023/03/27 00:28:17;;;;;;;0.60;0.60;;;;;;;;;;5049505;28;20080;-84
2023/03/27 00:30:43;;;;;;;1.27;1.17;;;;;;;;;;5033621;28;20130;-85
2023/03/27 00:33:12;;;;;;;0.80;0.80;;;;;;;;;;5034147;28;20029;-85
2023/03/27 00:35:38;;;;;;;0.35;0.35;;;;;;;;;;5033489;28;20059;-84
2023/03/27 00:38:03;;;;;;;0.93;0.93;;;;;;;;;;5051703;28;20033;-84
2023/03/27 00:40:30;;;;;;;0.30;0.30;;;;;;;;;;5049796;28;20112;-84
2023/03/27 00:42:58;;;;;;;0.70;0.70;;;;;;;;;;5048279;28;20492;-85
2023/03/27 00:45:30;;;;;;;0.60;0.60;;;;;;;;;;5038303;28;20024;-85
2023/03/27 00:48:00;;;;;;;0.75;0.60;;;;;;;;;;5060971;28;20474;-84
2023/03/27 00:50:33;;;;;;;0.43;0.43;;;;;;;;;;5040047;28;20024;-83
2023/03/27 00:53:21;;;;;;;0.60;0.60;;;;;;;;;;5043770;28;20035;-84
2023/03/27 00:55:50;;;;;;;0.38;0.38;;;;;;;;;;5042876;28;20028;-85
2023/03/27 00:58:20;;;;;;;0.30;0.30;;;;;;;;;;5030285;28;20036;-84
2023/03/27 01:00:50;;;;;;;0.50;0.50;;;;;;;;;;5058199;28;20444;-86
2023/03/27 01:03:16;;;;;;;0.50;0.50;;;;;;;;;;5059410;28;20055;-86
2023/03/27 01:05:42;;;;;;;0.90;0.90;;;;;;;;;;5058089;28;20051;-85
2023/03/27 01:08:10;;;;;;;0.90;0.85;;;;;;;;;;5054817;28;20028;-87
2023/03/27 01:10:38;;;;;;;0.30;0.30;;;;;;;;;;5024608;28;20063;-83
2023/03/27 01:13:47;;;;;;;0.52;0.52;;;;;;;;;;5055774;28;20040;-85
2023/03/27 01:17:10;;;;;;;0.38;0.38;;;;;;;;;;4988731;28;20087;-86
2023/03/27 01:20:13;;;;;;;0.30;0.30;;;;;;;;;;5018591;28;20032;-82
2023/03/27 01:22:38;;;;;;;0.40;0.40;;;;;;;;;;5068493;28;20044;-82
2023/03/27 01:25:42;;;;;;;0.65;0.65;;;;;;;;;;5072046;28;20067;-83
2023/03/27 01:28:34;;;;;;;0.40;0.40;;;;;;;;;;5039660;28;20041;-82
2023/03/27 01:31:22;;;;;;;0.60;0.60;;;;;;;;;;5053081;28;20029;-82
2023/03/27 01:34:15;;;;;;;0.47;0.47;;;;;;;;;;5057991;28;20087;-81
2023/03/27 01:37:08;;;;;;;1.55;0.85;;;;;;;;;;5031711;28;20040;-82
2023/03/27 01:40:02;;;;;;;0.73;0.73;;;;;;;;;;5062640;28;20025;-83
2023/03/27 01:42:52;;;;;;;0.10;0.10;;;;;;;;;;5069804;28;20056;-83
2023/03/27 01:45:51;;;;;;;0.80;0.80;;;;;;;;;;5070078;28;20526;-84
2023/03/27 01:48:41;;;;;;;0.55;0.55;;;;;;;;;;5048249;28;20028;-86
2023/03/27 01:51:24;;;;;;;0.68;0.52;;;;;;;;;;5040628;28;20028;-84
2023/03/27 01:53:59;;;;;;;1.15;0.43;;;;;;;;;;5032977;28;20037;-85
2023/03/27 01:56:31;;;;;;;0.50;0.50;;;;;;;;;;5057619;28;20390;-84
2023/03/27 01:59:10;;;;;;;0.73;0.73;;;;;;;;;;5055322;28;20037;-84
2023/03/27 02:01:43;;;;;;;0.60;0.60;;;;;;;;;;5047343;28;20044;-84
2023/03/27 02:04:15;;;;;;;0.70;0.68;;;;;;;;;;5051503;28;20048;-86
2023/03/27 02:06:45;;;;;;;0.63;0.63;;;;;;;;;;5068490;28;20029;-81
2023/03/27 02:09:17;;;;;;;1.00;0.90;;;;;;;;;;5073649;28;20049;-83
2023/03/27 02:11:48;;;;;;;0.60;0.60;;;;;;;;;;5076548;28;20035;-82
2023/03/27 02:14:20;;;;;;;1.20;1.15;;;;;;;;;;5044895;28;20030;-82
2023/03/27 02:16:51;;;;;;;2.22;1.25;;;;;;;;;;5056239;28;20116;-82
2023/03/27 02:19:22;;;;;;;4.40;1.25;;;;;;;;;;5056368;28;20021;-82
2023/03/27 02:21:47;;;;;;;1.10;1.07;;;;;;;;;;5060971;28;20502;-83
2023/03/27 02:24:16;;;;;;;3.28;1.65;;;;;;;;;;5067939;28;20017;-82
2023/03/27 02:26:43;;;;;;;1.85;1.55;;;;;;;;;;5058576;28;20115;-83
2023/03/27 02:29:21;;;;;;;0.60;0.60;;;;;;;;;;5071755;28;20028;-82
2023/03/27 02:32:42;;;;;;;5.72;1.73;;;;;;;;;;5053032;28;20466;-84
2023/03/27 02:35:26;;;;;;;7.32;1.52;;;;;;;;;;4986702;28;20513;-84
2023/03/27 02:38:08;;;;;;;4.75;1.88;;;;;;;;;;4987022;28;20090;-84
2023/03/27 02:40:54;;;;;;;6.72;1.83;;;;;;;;;;5044758;28;20025;-85
2023/03/27 02:43:22;;;;;;;1.92;0.88;;;;;;;;;;5047691;28;20372;-86
2023/03/27 02:45:56;;;;;;;1.38;1.27;;;;;;;;;;5063117;28;20048;-85
2023/03/27 02:48:28;;;;;;;2.92;2.22;;;;;;;;;;5041701;28;20017;-83
2023/03/27 02:51:05;;;;;;;2.80;2.00;;;;;;;;;;5069187;28;20021;-84
2023/03/27 02:53:36;;;;;;;1.65;1.55;;;;;;;;;;5064614;28;20150;-85
2023/03/27 02:56:05;;;;;;;0.47;0.43;;;;;;;;;;5044284;28;20028;-84
2023/03/27 02:58:48;;;;;;;2.78;1.73;;;;;;;;;;5044802;28;20028;-85
2023/03/27 03:01:17;;;;;;;4.75;1.52;;;;;;;;;;5056321;28;20031;-85
2023/03/27 03:03:56;;;;;;;6.35;1.08;;;;;;;;;;5047438;28;20017;-85
2023/03/27 03:06:28;;;;;;;18.55;2.20;;;;;;;;;;5070923;28;20090;-84
2023/03/27 03:09:01;;;;;;;1.83;1.63;;;;;;;;;;5059174;28;20021;-85
2023/03/27 03:11:27;;;;;;;0.77;0.77;;;;;;;;;;5060214;28;20025;-84
2023/03/27 03:13:53;;;;;;;2.50;1.58;;;;;;;;;;5040439;28;20041;-85
2023/03/27 03:16:19;;;;;;;1.35;1.27;;;;;;;;;;5061709;28;20073;-85
2023/03/27 03:18:45;;;;;;;1.27;1.15;;;;;;;;;;5045829;28;20112;-85
2023/03/27 03:21:10;;;;;;;3.30;1.95;;;;;;;;;;5064522;28;20029;-85
2023/03/27 03:23:36;;;;;;;10.02;1.92;;;;;;;;;;5043465;28;20017;-84
2023/03/27 03:26:01;;;;;;;1.33;1.23;;;;;;;;;;5042459;28;20025;-82
2023/03/27 03:28:27;;;;;;;9.93;2.40;;;;;;;;;;5056128;28;20025;-83
2023/03/27 03:30:53;;;;;;;2.78;1.95;;;;;;;;;;5037679;28;20028;-83
2023/03/27 03:33:19;;;;;;;6.63;2.38;;;;;;;;;;5053277;28;20048;-84
2023/03/27 03:35:47;;;;;;;8.50;2.20;;;;;;;;;;5056670;28;20024;-84
2023/03/27 03:38:14;;;;;;;2.13;1.40;;;;;;;;;;5036717;28;20037;-84
2023/03/27 03:40:40;;;;;;;11.82;3.03;;;;;;;;;;5047746;28;20027;-86
2023/03/27 03:43:06;;;;;;;1.95;0.93;;;;;;;;;;5053280;28;20016;-84
2023/03/27 03:45:31;;;;;;;2.85;1.92;;;;;;;;;;5026033;28;20029;-84
2023/03/27 03:47:56;;;;;;;2.20;1.88;;;;;;;;;;5051984;28;20051;-84
2023/03/27 03:50:22;;;;;;;1.55;1.08;;;;;;;;;;5041432;28;20482;-84
2023/03/27 03:52:47;;;;;;;0.60;0.60;;;;;;;;;;5032903;28;20025;-84
2023/03/27 03:55:14;;;;;;;1.77;1.40;;;;;;;;;;5039708;28;20067;-84
2023/03/27 03:57:43;;;;;;;0.55;0.55;;;;;;;;;;5038214;28;20037;-84
2023/03/27 04:00:12;;;;;;;2.15;0.80;;;;;;;;;;5055513;28;21842;-83
2023/03/27 04:02:40;;;;;;;2.72;0.98;;;;;;;;;;5036598;28;20058;-84
2023/03/27 04:05:06;;;;;;;3.13;1.83;;;;;;;;;;5037708;28;20115;-83
2023/03/27 04:07:31;;;;;;;0.95;0.95;;;;;;;;;;5048233;28;20469;-83
2023/03/27 04:10:00;;;;;;;6.70;1.48;;;;;;;;;;5030280;28;20064;-83
2023/03/27 04:12:26;;;;;;;4.07;1.02;;;;;;;;;;5054943;28;20029;-83
2023/03/27 04:14:52;;;;;;;4.18;1.45;;;;;;;;;;5033437;28;20095;-82
2023/03/27 04:17:19;;;;;;;3.22;1.38;;;;;;;;;;5051760;28;20025;-81
2023/03/27 04:19:45;;;;;;;5.65;1.55;;;;;;;;;;5065714;28;20013;-80
2023/03/27 04:22:11;;;;;;;0.60;0.60;;;;;;;;;;5067804;28;20025;-84
2023/03/27 04:24:37;;;;;;;4.88;0.73;;;;;;;;;;5053199;28;20047;-83
2023/03/27 04:27:03;;;;;;;1.30;1.20;;;;;;;;;;5070931;28;20028;-83
2023/03/27 04:29:29;;;;;;;9.32;1.08;;;;;;;;;;5058846;28;20044;-84
2023/03/27 04:31:56;;;;;;;0.50;0.50;;;;;;;;;;5060496;28;20040;-84
2023/03/27 04:34:22;;;;;;;4.03;1.50;;;;;;;;;;5043217;28;20470;-84
2023/03/27 04:36:47;;;;;;;1.00;0.73;;;;;;;;;;5041657;28;20035;-83
2023/03/27 04:39:16;;;;;;;0.75;0.75;;;;;;;;;;5048153;28;20021;-84
2023/03/27 04:41:48;;;;;;;5.60;0.90;;;;;;;;;;5056086;28;20021;-83
2023/03/27 04:44:16;;;;;;;;;;;;;;;;;;5061449;28;20135;-82
2023/03/27 04:46:47;;;;;;;1.33;1.13;;;;;;;;;;5056157;28;19909;-84
2023/03/27 04:49:13;;;;;;;0.85;0.82;;;;;;;;;;5060401;28;20025;-84
2023/03/27 04:51:40;;;;;;;9.60;1.08;;;;;;;;;;5039269;28;20472;-84
2023/03/27 04:54:06;;;;;;;2.35;1.35;;;;;;;;;;5037168;28;20433;-83
2023/03/27 04:56:33;;;;;;;2.63;1.83;;;;;;;;;;5058761;28;20088;-82
2023/03/27 04:59:00;;;;;;;3.83;1.20;;;;;;;;;;5042912;28;20617;-83
2023/03/27 05:01:26;;;;;;;0.68;0.68;;;;;;;;;;5069339;28;20016;-83
2023/03/27 05:03:52;;;;;;;1.05;0.80;;;;;;;;;;5037387;28;20025;-84
2023/03/27 05:06:17;;;;;;;1.75;1.20;;;;;;;;;;5043858;28;20020;-83
2023/03/27 05:08:43;;;;;;;12.30;1.05;;;;;;;;;;5045527;28;20032;-83
2023/03/27 05:11:09;;;;;;;6.68;1.48;;;;;;;;;;5054519;28;20029;-82
2023/03/27 05:13:35;;;;;;;13.10;1.50;;;;;;;;;;5033238;28;20033;-81
2023/03/27 05:16:01;;;;;;;3.33;0.80;;;;;;;;;;5054915;28;20370;-83
2023/03/27 05:18:29;;;;;;;3.67;1.17;;;;;;;;;;5028965;28;20029;-82
2023/03/27 05:20:56;;;;;;;0.63;0.63;;;;;;;;;;5061772;28;20108;-83
2023/03/27 05:23:21;;;;;;;0.75;0.75;;;;;;;;;;5067887;28;20039;-83
2023/03/27 05:25:47;;;;;;;0.40;0.40;;;;;;;;;;5064012;28;20387;-83
2023/03/27 05:28:12;;;;;;;0.40;0.40;;;;;;;;;;5069232;28;20027;-82
2023/03/27 05:30:37;;;;;;;1.15;0.85;;;;;;;;;;5048630;28;20096;-83
2023/03/27 05:33:03;;;;;;;0.77;0.77;;;;;;;;;;5066173;28;20020;-82
2023/03/27 05:35:28;;;;;;;1.55;0.85;;;;;;;;;;5063608;28;20452;-82
2023/03/27 05:37:55;;;;;;;6.72;1.10;;;;;;;;;;5035296;28;20039;-83
2023/03/27 05:40:24;;;;;;;0.57;0.57;;;;;;;;;;5056287;28;20016;-81
2023/03/27 05:42:50;;;;;;;0.70;0.70;;;;;;;;;;5085179;28;20037;-81
2023/03/27 05:45:16;;;;;;;0.68;0.68;;;;;;;;;;5076190;28;20560;-82
2023/03/27 05:47:50;;;;;;;0.77;0.70;;;;;;;;;;5078312;28;20025;-82
2023/03/27 05:50:18;;;;;;;3.10;0.57;;;;;;;;;;5052090;28;20044;-82
2023/03/27 05:52:43;;;;;;;0.52;0.38;;;;;;;;;;5039662;28;20025;-82
2023/03/27 05:55:09;;;;;;;4.60;1.05;;;;;;;;;;5057083;28;20017;-82
2023/03/27 05:57:39;;;;;;;1.00;1.00;;;;;;;;;;5047130;28;20088;-85
2023/03/27 06:00:09;;;;;;;1.08;0.60;;;;;;;;;;5046297;28;20546;-82
2023/03/27 06:02:35;;;;;;;9.57;1.67;;;;;;;;;;5035368;28;20029;-82
2023/03/27 06:05:00;;;;;;;0.90;0.88;;;;;;;;;;5061174;28;20016;-80
2023/03/27 06:07:27;;;;;;;0.70;0.70;;;;;;;;;;5073103;28;20084;-80
2023/03/27 06:09:52;;;;;;;2.75;1.60;;;;;;;;;;5072851;28;20059;-79
2023/03/27 06:12:18;;;;;;;2.90;0.93;;;;;;;;;;5060272;28;20032;-83
2023/03/27 06:14:43;;;;;;;4.68;0.93;;;;;;;;;;5051143;28;20048;-80
2023/03/27 06:17:09;;;;;;;8.05;1.60;;;;;;;;;;5049125;28;20072;-82
2023/03/27 06:19:34;;;;;;;3.47;2.05;;;;;;;;;;5062350;28;20530;-83
2023/03/27 06:22:00;;;;;;;0.45;0.45;;;;;;;;;;5054515;28;20052;-82
2023/03/27 06:24:25;;;;;;;11.43;1.88;;;;;;;;;;5045784;28;20094;-82
2023/03/27 06:26:51;;;;;;;6.25;2.55;;;;;;;;;;5056610;28;20257;-81
2023/03/27 06:29:17;;;;;;;0.88;0.88;;;;;;;;;;5046938;28;20021;-83
2023/03/27 06:31:42;;;;;;;6.65;1.92;;;;;;;;;;5043377;28;20044;-81
2023/03/27 06:34:09;;;;;;;7.32;1.73;;;;;;;;;;5031636;28;20016;-82
2023/03/27 06:36:35;;;;;;;1.55;1.10;;;;;;;;;;5047096;28;20021;-81
2023/03/27 06:39:05;;;;;;;0.88;0.85;;;;;;;;;;5047645;28;20116;-82
2023/03/27 06:41:30;;;;;;;2.13;1.30;;;;;;;;;;5045285;28;20021;-82
2023/03/27 06:43:56;;;;;;;5.18;1.85;;;;;;;;;;5048448;28;20477;-82
2023/03/27 06:46:21;;;;;;;0.70;0.70;;;;;;;;;;5035583;28;20440;-82
2023/03/27 06:48:49;;;;;;;2.63;2.25;;;;;;;;;;5062191;28;20017;-81
2023/03/27 06:51:15;;;;;;;0.52;0.52;;;;;;;;;;5041653;28;20051;-82
2023/03/27 06:53:41;;;;;;;4.50;1.55;;;;;;;;;;5041357;28;20498;-83
2023/03/27 06:56:06;;;;;;;1.38;1.27;;;;;;;;;;5034994;28;20043;-83
2023/03/27 06:58:32;;;;;;;8.95;1.48;;;;;;;;;;5028988;28;20032;-82
2023/03/27 07:00:57;;;;;;;4.28;1.73;;;;;;;;;;5046103;28;20141;-81
2023/03/27 07:03:22;;;;;;;3.80;1.10;;;;;;;;;;5033746;28;20064;-82
2023/03/27 07:05:48;;;;;;;1.60;1.30;;;;;;;;;;5029185;28;20115;-82
2023/03/27 07:08:15;;;;;;;1.05;0.90;;;;;;;;;;5045086;28;20032;-82
2023/03/27 07:10:40;;;;;;;0.75;0.75;;;;;;;;;;5053048;28;20040;-81
2023/03/27 07:13:06;;;;;;;7.63;3.05;;;;;;;;;;5056248;28;20046;-81
2023/03/27 07:15:31;;;;;;;3.60;2.15;;;;;;;;;;5055912;28;20037;-81
2023/03/27 07:18:02;;;;;;;1.60;1.05;;;;;;;;;;5051412;28;20039;-80
2023/03/27 07:20:29;;;;;;;0.50;0.50;;;;;;;;;;5031426;28;20033;-82
2023/03/27 07:22:59;;;;;;;1.25;1.00;;;;;;;;;;5035247;28;20059;-82
2023/03/27 07:25:26;;;;;;;1.23;0.75;;;;;;;;;;5052140;28;20025;-82
2023/03/27 07:27:57;;;;;;;0.60;0.60;;;;;;;;;;5047416;28;20029;-83
2023/03/27 07:30:22;;;;;;;5.57;2.30;;;;;;;;;;5054402;28;20032;-81
2023/03/27 07:32:47;;;;;;;0.95;0.73;;;;;;;;;;5041359;28;20093;-82
2023/03/27 07:35:13;;;;;;;0.65;0.60;;;;;;;;;;5053974;28;20442;-80
2023/03/27 07:37:39;;;;;;;1.48;1.38;;;;;;;;;;5076059;28;20021;-80
2023/03/27 07:40:07;;;;;;;1.63;0.75;;;;;;;;;;5064886;28;20088;-81
2023/03/27 07:42:33;;;;;;;1.77;1.15;;;;;;;;;;5061098;28;20059;-81
2023/03/27 07:44:59;;;;;;;0.63;0.60;;;;;;;;;;5037693;28;20079;-81
2023/03/27 07:47:25;;;;;;;0.70;0.70;;;;;;;;;;5034999;28;20036;-81
2023/03/27 07:49:51;;;;;;;0.60;0.60;;;;;;;;;;5037328;28;20056;-80
2023/03/27 07:52:16;;;;;;;0.52;0.52;;;;;;;;;;5054584;28;20028;-80
2023/03/27 07:54:42;;;;;;;0.45;0.45;;;;;;;;;;5051682;28;20332;-80
2023/03/27 07:57:09;;;;;;;0.77;0.77;;;;;;;;;;5040154;28;20028;-80
2023/03/27 07:59:35;;;;;;;1.55;1.00;;;;;;;;;;5058305;28;20533;-82
2023/03/27 08:02:01;;;;;;;0.70;0.70;;;;;;;;;;5058948;28;20110;-80
2023/03/27 08:04:26;;;;;;;1.70;1.27;;;;;;;;;;5054910;28;20021;-80
2023/03/27 08:06:53;;;;;;;5.93;1.08;;;;;;;;;;5027497;28;20025;-81
2023/03/27 08:09:19;;;;;;;2.85;1.33;;;;;;;;;;5042644;28;20021;-82
2023/03/27 08:11:45;;;;;;;1.63;1.02;;;;;;;;;;5051229;28;20025;-81
2023/03/27 08:14:11;;;;;;;1.83;0.85;;;;;;;;;;5031718;28;20152;-81
2023/03/27 08:16:36;;;;;;;3.22;1.00;;;;;;;;;;5056663;28;20032;-81
2023/03/27 08:19:03;;;;;;;5.00;1.40;;;;;;;;;;5033707;28;20033;-81
2023/03/27 08:21:32;;;;;;;2.05;1.02;;;;;;;;;;5059764;28;20017;-81
2023/03/27 08:23:58;;;;;;;2.10;1.02;;;;;;;;;;5034324;28;20056;-79
2023/03/27 08:26:25;;;;;;;1.50;1.10;;;;;;;;;;5051381;28;20020;-81
2023/03/27 08:28:54;;;;;;;11.18;1.40;;;;;;;;;;5046922;28;20024;-82
2023/03/27 08:31:20;;;;;;;1.00;0.77;;;;;;;;;;5059324;28;20397;-81
2023/03/27 08:33:46;;;;;;;1.58;0.77;;;;;;;;;;5061877;28;20084;-81
2023/03/27 08:36:13;;;;;;;1.77;1.00;;;;;;;;;;5052532;28;20025;-80
2023/03/27 08:38:42;;;;;;;3.78;1.02;;;;;;;;;;5056621;28;20036;-80
2023/03/27 08:41:37;;;;;;;0.60;0.60;;;;;;;;;;5050402;28;20517;-81
2023/03/27 08:44:05;;;;;;;4.30;1.45;;;;;;;;;;5059817;28;20479;-81
2023/03/27 08:46:42;;;;;;;3.38;1.02;;;;;;;;;;5036036;28;20025;-81
2023/03/27 08:49:16;;;;;;;2.25;0.73;;;;;;;;;;5049500;28;20025;-81
2023/03/27 08:51:58;;;;;;;7.18;1.17;;;;;;;;;;5050510;28;20031;-81
2023/03/27 08:54:31;;;;;;;0.93;0.40;;;;;;;;;;5052385;28;20129;-81
2023/03/27 08:56:57;;;;;;;0.50;0.50;;;;;;;;;;5050583;28;20028;-81
2023/03/27 08:59:28;;;;;;;1.25;0.95;;;;;;;;;;5044387;28;20025;-81
2023/03/27 09:01:56;;;;;;;17.65;2.53;;;;;;;;;;5053209;28;20056;-82
2023/03/27 09:04:25;;;;;;;3.67;1.75;;;;;;;;;;5052719;28;20029;-81
2023/03/27 09:07:11;;;;;;;0.65;0.43;;;;;;;;;;5053351;28;20048;-81
2023/03/27 09:10:04;;;;;;;1.48;0.80;;;;;;;;;;5060047;28;20039;-82
2023/03/27 09:12:39;;;;;;;;;;;;;;;;;;5063896;28;20083;-82
2023/03/27 09:15:11;;;;;;;0.65;0.50;;;;;;;;;;5034809;28;19931;-82
2023/03/27 09:18:09;;;;;;;5.82;1.20;;;;;;;;;;5063625;28;20051;-81
2023/03/27 09:20:56;;;;;;;2.70;1.05;;;;;;;;;;5063590;28;20479;-80
2023/03/27 09:23:35;;;;;;;0.77;0.77;;;;;;;;;;5058704;28;20040;-81
2023/03/27 09:26:13;;;;;;;4.03;0.82;;;;;;;;;;5054660;28;20100;-81
2023/03/27 09:28:50;;;;;;;2.08;0.95;;;;;;;;;;5057897;28;20047;-82
2023/03/27 09:31:33;;;;;;;3.40;1.40;;;;;;;;;;5047365;28;20590;-81
2023/03/27 09:34:05;;;;;;;2.85;1.17;;;;;;;;;;5037505;28;20080;-81
2023/03/27 09:36:34;;;;;;;0.88;0.82;;;;;;;;;;5044349;28;20071;-81
2023/03/27 09:39:06;;;;;;;1.35;0.70;;;;;;;;;;5057185;28;20078;-81
2023/03/27 09:41:41;;;;;;;0.52;0.52;;;;;;;;;;5077055;28;20479;-82
2023/03/27 09:44:29;;;;;;;3.50;0.85;;;;;;;;;;5060561;28;20059;-81
2023/03/27 09:47:03;;;;;;;3.08;1.13;;;;;;;;;;5059147;28;20102;-80
2023/03/27 09:49:29;;;;;;;2.55;0.52;;;;;;;;;;5039444;28;20290;-81
2023/03/27 09:51:58;;;;;;;1.85;1.05;;;;;;;;;;5066624;28;20478;-81
2023/03/27 09:54:27;;;;;;;4.30;1.15;;;;;;;;;;5067268;28;20031;-79
2023/03/27 09:57:05;;;;;;;9.70;1.23;;;;;;;;;;5056502;28;20031;-81
2023/03/27 09:59:38;;;;;;;1.98;1.02;;;;;;;;;;5047004;28;20051;-82
2023/03/27 10:02:19;;;;;;;0.80;0.68;;;;;;;;;;5047653;28;20032;-82
2023/03/27 10:05:01;;;;;;;1.70;0.70;;;;;;;;;;5034241;28;20036;-81
2023/03/27 10:07:27;;;;;;;1.43;0.77;;;;;;;;;;5060807;28;20025;-81
2023/03/27 10:10:11;;;;;;;4.13;0.82;;;;;;;;;;5053255;28;20051;-81
2023/03/27 10:12:37;;;;;;;0.90;0.43;;;;;;;;;;5057301;28;20096;-81
2023/03/27 10:15:08;;;;;;;2.45;0.68;;;;;;;;;;5034559;28;20025;-84
2023/03/27 10:17:53;;;;;;;1.58;1.38;;;;;;;;;;5058011;28;20056;-82
2023/03/27 10:20:20;;;;;;;3.53;0.70;;;;;;;;;;5061445;28;20024;-82
2023/03/27 10:22:59;;;;;;;1.17;0.75;;;;;;;;;;5059897;28;20033;-82
2023/03/27 10:25:27;;;;;;;2.40;0.80;;;;;;;;;;5060594;28;20032;-81
2023/03/27 10:27:53;;;;;;;4.85;1.48;;;;;;;;;;5063046;28;20040;-81
2023/03/27 10:30:32;;;;;;;4.28;0.88;;;;;;;;;;5063216;28;20028;-82
2023/03/27 10:32:58;;;;;;;2.88;1.05;;;;;;;;;;5057008;28;20025;-82
2023/03/27 10:35:38;;;;;;;0.90;0.90;;;;;;;;;;5043201;28;20040;-82
2023/03/27 10:38:10;;;;;;;1.65;1.05;;;;;;;;;;5042800;28;20051;-82
2023/03/27 10:40:38;;;;;;;4.30;1.02;;;;;;;;;;5054679;28;20047;-82
2023/03/27 10:43:11;;;;;;;2.35;0.73;;;;;;;;;;5059638;28;20025;-83
2023/03/27 10:45:51;;;;;;;2.63;1.27;;;;;;;;;;5043368;28;20052;-81
2023/03/27 10:48:40;;;;;;;3.42;1.08;;;;;;;;;;5030876;28;20045;-83
2023/03/27 10:51:33;;;;;;;0.82;0.60;;;;;;;;;;5047117;28;20053;-81
2023/03/27 10:54:06;;;;;;;;;;;;;;;;;;5035328;28;20037;-81
2023/03/27 10:56:57;;;;;;;2.70;1.30;;;;;;;;;;5039390;28;20023;-82
2023/03/27 10:59:35;;;;;;;6.10;1.10;;;;;;;;;;5041924;28;20028;-87
2023/03/27 11:02:11;;;;;;;1.23;0.90;;;;;;;;;;5041871;28;20033;-82
2023/03/27 11:04:44;;;;;;;1.42;0.73;;;;;;;;;;5020308;28;21908;-81
2023/03/27 11:07:17;;;;;;;0.93;0.70;;;;;;;;;;5034300;28;20121;-80
2023/03/27 11:09:56;;;;;;;0.52;0.50;;;;;;;;;;5035373;28;20068;-81
2023/03/27 11:12:23;;;;;;;2.63;0.63;;;;;;;;;;5038071;28;20475;-82
2023/03/27 11:15:06;;;;;;;2.70;1.08;;;;;;;;;;5035929;28;20032;-82
2023/03/27 11:17:48;;;;;;;1.60;0.68;;;;;;;;;;5035099;28;20102;-81
2023/03/27 11:20:26;;;;;;;0.70;0.45;;;;;;;;;;5032346;28;20044;-83
2023/03/27 11:23:03;;;;;;;0.43;0.43;;;;;;;;;;5021327;28;20048;-83
2023/03/27 11:25:37;;;;;;;1.98;0.60;;;;;;;;;;5033202;28;20028;-81
2023/03/27 11:28:30;;;;;;;5.97;0.77;;;;;;;;;;5032577;28;20028;-83
2023/03/27 11:31:36;;;;;;;0.32;0.32;;;;;;;;;;5032970;28;20124;-83
2023/03/27 11:34:33;;;;;;;2.20;0.60;;;;;;;;;;5016227;28;20106;-83
2023/03/27 11:37:04;;;;;;;1.17;0.85;;;;;;;;;;5051696;28;20435;-82
2023/03/27 11:39:34;;;;;;;3.30;0.65;;;;;;;;;;5049217;28;20060;-82
2023/03/27 11:42:09;;;;;;;5.32;0.95;;;;;;;;;;5065034;28;20430;-83
2023/03/27 11:44:34;;;;;;;1.30;1.00;;;;;;;;;;5050225;28;20088;-83
2023/03/27 11:47:12;;;;;;;0.73;0.60;;;;;;;;;;5055913;28;20455;-82
2023/03/27 11:50:11;;;;;;;1.92;0.57;;;;;;;;;;5057789;28;20079;-82
2023/03/27 11:52:46;;;;;;;4.35;1.77;;;;;;;;;;5046784;28;20491;-81
2023/03/27 11:55:33;;;;;;;2.25;1.02;;;;;;;;;;5061114;28;20028;-81
2023/03/27 11:58:22;;;;;;;0.32;0.32;;;;;;;;;;5055532;28;20033;-82
2023/03/27 12:01:06;;;;;;;0.82;0.77;;;;;;;;;;5057553;28;20127;-81
2023/03/27 12:03:57;;;;;;;0.55;0.55;;;;;;;;;;5054377;28;20033;-83
2023/03/27 12:06:32;;;;;;;0.30;0.30;;;;;;;;;;5032850;28;20426;-81
2023/03/27 12:09:26;;;;;;;2.55;0.93;;;;;;;;;;5045869;28;20119;-81
2023/03/27 12:12:36;;;;;;;3.55;0.70;;;;;;;;;;5057650;28;20037;-81
2023/03/27 12:15:23;;;;;;;2.30;0.90;;;;;;;;;;5011898;28;20054;-82
2023/03/27 12:17:58;;;;;;;6.43;0.98;;;;;;;;;;5045994;28;20081;-80
2023/03/27 12:20:26;;;;;;;1.98;1.08;;;;;;;;;;5039216;28;20021;-81
2023/03/27 12:23:09;;;;;;;1.75;1.05;;;;;;;;;;5069675;28;20024;-80
2023/03/27 12:25:47;;;;;;;0.75;0.75;;;;;;;;;;5042629;28;20036;-82
2023/03/27 12:28:26;;;;;;;0.90;0.77;;;;;;;;;;5057344;28;20025;-82
2023/03/27 12:31:12;;;;;;;0.43;0.43;;;;;;;;;;5068706;28;20024;-83
2023/03/27 12:33:45;;;;;;;0.47;0.47;;;;;;;;;;5063759;28;20120;-83
2023/03/27 12:36:16;;;;;;;3.08;0.93;;;;;;;;;;5057745;28;20037;-83
2023/03/27 12:38:42;;;;;;;0.40;0.40;;;;;;;;;;5063434;28;20426;-82
2023/03/27 12:41:09;;;;;;;3.88;1.13;;;;;;;;;;5053751;28;20108;-82
2023/03/27 12:43:40;;;;;;;3.08;0.50;;;;;;;;;;5044510;28;20021;-81
2023/03/27 12:46:18;;;;;;;3.47;1.08;;;;;;;;;;5057711;28;20029;-81
2023/03/27 12:49:21;;;;;;;1.58;1.02;;;;;;;;;;5058943;28;20025;-83
2023/03/27 12:51:53;;;;;;;3.50;0.85;;;;;;;;;;5051339;28;20037;-82
2023/03/27 12:54:18;;;;;;;0.65;0.65;;;;;;;;;;5057983;28;20035;-81
2023/03/27 12:56:48;;;;;;;0.40;0.32;;;;;;;;;;5031799;28;20561;-79
2023/03/27 12:59:22;;;;;;;1.30;0.50;;;;;;;;;;5048677;28;20059;-81
2023/03/27 13:02:03;;;;;;;0.80;0.80;;;;;;;;;;5046926;28;20029;-81
2023/03/27 13:04:59;;;;;;;3.53;1.05;;;;;;;;;;5046251;28;20025;-82
2023/03/27 13:07:27;;;;;;;0.50;0.45;;;;;;;;;;5019974;28;20060;-84
2023/03/27 13:10:19;;;;;;;4.28;0.82;;;;;;;;;;5037863;28;20068;-82
2023/03/27 13:13:03;;;;;;;0.90;0.45;;;;;;;;;;5037111;28;20040;-84
2023/03/27 13:15:51;;;;;;;0.40;0.40;;;;;;;;;;5035436;28;20033;-84
2023/03/27 13:19:00;;;;;;;0.93;0.50;;;;;;;;;;5041235;28;20029;-85
2023/03/27 13:22:05;;;;;;;1.52;0.90;;;;;;;;;;5035607;28;20033;-83
2023/03/27 13:25:43;;;;;;;1.08;0.55;;;;;;;;;;5019277;28;20044;-86
2023/03/27 13:29:29;;;;;;;3.20;0.85;;;;;;;;;;5048863;28;20059;-84
2023/03/27 13:36:05;;;;;;;;;;;;;;;;;;4972592;28;20540;-82
2023/03/27 13:39:13;;;;;;;2.83;1.02;;;;;;;;;;4973679;28;20420;-83
2023/03/27 13:41:58;;;;;;;1.88;1.17;;;;;;;;;;4970373;28;20027;-81
2023/03/27 13:45:20;;;;;;;2.75;0.80;;;;;;;;;;4969767;28;20043;-84
2023/03/27 13:48:24;;;;;;;1.13;0.80;;;;;;;;;;5030431;28;20083;-83
2023/03/27 13:51:37;;;;;;;1.75;0.73;;;;;;;;;;5048620;28;20049;-85
2023/03/27 13:55:01;;;;;;;0.73;0.50;;;;;;;;;;5053882;28;20021;-85
2023/03/27 13:58:24;;;;;;;0.60;0.60;;;;;;;;;;5042824;28;20111;-86
2023/03/27 14:01:32;;;;;;;1.00;0.75;;;;;;;;;;5015684;28;20032;-84
2023/03/27 14:04:43;;;;;;;1.23;0.70;;;;;;;;;;5031724;28;20033;-85
2023/03/27 14:11:22;;;;;;;1.33;1.20;;;;;;;;;;5057674;28;20032;-85
2023/03/27 14:17:22;;;;;;;0.85;0.68;;;;;;;;;;5050670;28;20044;-82
2023/03/27 14:20:24;;;;;;;0.93;0.88;;;;;;;;;;5056319;28;20043;-81
2023/03/27 14:23:04;;;;;;;2.78;1.20;;;;;;;;;;5035370;28;20042;-82
2023/03/27 14:25:37;;;;;;;5.55;0.88;;;;;;;;;;5069415;28;20040;-82
2023/03/27 14:28:44;;;;;;;3.40;1.10;;;;;;;;;;5065532;28;20025;-80
2023/03/27 14:31:13;;;;;;;3.88;1.17;;;;;;;;;;5050063;28;20028;-81
2023/03/27 14:34:02;;;;;;;1.77;0.90;;;;;;;;;;5045608;28;20041;-81
2023/03/27 14:36:29;;;;;;;4.07;1.35;;;;;;;;;;5071108;28;20024;-81
2023/03/27 14:39:01;;;;;;;1.73;1.10;;;;;;;;;;5062624;28;20033;-82
2023/03/27 14:41:27;;;;;;;1.55;1.10;;;;;;;;;;5073029;28;20062;-81
2023/03/27 14:43:52;;;;;;;1.30;0.93;;;;;;;;;;5030750;28;20021;-80
2023/03/27 14:46:22;;;;;;;3.10;1.27;;;;;;;;;;5062168;28;20021;-80
2023/03/27 14:48:54;;;;;;;4.38;1.70;;;;;;;;;;5044946;28;20037;-81
2023/03/27 14:51:25;;;;;;;;;;;;;;;;;;5057400;28;20871;-80
2023/03/27 14:53:59;;;;;;;5.05;1.13;;;;;;;;;;5060355;28;19974;-81
2023/03/27 14:56:40;;;;;;;1.52;1.42;;;;;;;;;;5049357;28;20020;-81
2023/03/27 14:59:21;;;;;;;3.72;1.08;;;;;;;;;;5084543;28;20012;-81
2023/03/27 15:01:53;;;;;;;1.08;0.90;;;;;;;;;;5070591;28;20029;-82
2023/03/27 15:04:19;;;;;;;1.30;1.10;;;;;;;;;;5058836;28;20029;-82
2023/03/27 15:06:44;;;;;;;0.40;0.40;;;;;;;;;;5075979;28;20023;-82
2023/03/27 15:09:15;;;;;;;2.55;1.00;;;;;;;;;;5059363;28;20037;-80
2023/03/27 15:11:43;;;;;;;2.53;0.68;;;;;;;;;;5045520;28;20033;-82
2023/03/27 15:14:24;;;;;;;2.05;1.33;;;;;;;;;;5059105;28;20024;-82
2023/03/27 15:16:56;;;;;;;3.13;1.05;;;;;;;;;;5085031;28;20023;-80
2023/03/27 15:19:27;;;;;;;5.28;1.25;;;;;;;;;;5043564;28;20041;-82
2023/03/27 15:22:01;;;;;;;0.82;0.82;;;;;;;;;;5042622;28;20032;-82
2023/03/27 15:24:39;;;;;;;2.20;1.10;;;;;;;;;;5043893;28;20040;-83
2023/03/27 15:27:08;;;;;;;1.10;1.00;;;;;;;;;;5044534;28;20033;-82
2023/03/27 15:29:39;;;;;;;0.93;0.93;;;;;;;;;;5045314;28;20048;-80
2023/03/27 15:32:10;;;;;;;2.22;1.10;;;;;;;;;;5047396;28;20021;-81
2023/03/27 15:34:45;;;;;;;1.80;1.20;;;;;;;;;;5038161;28;20056;-82
2023/03/27 15:37:18;;;;;;;3.58;1.10;;;;;;;;;;5040219;28;20028;-84